sensor_id;sensor_type;location;lat;lon;timestamp;pressure;altitude;pressure_sealevel;temperature;humidity
14041;BME280;7095;51.388;6.196;2023-03-08T00:01:36;102536.75;;;-145.32;100.00
14041;BME280;7095;51.388;6.196;2023-03-08T00:04:04;102536.75;;;-145.32;100.00
14041;BME280;7095;51.388;6.196;2023-03-08T00:06:33;102794.91;;;-145.32;100.00
14041;BME280;7095;51.388;6.196;2023-03-08T00:09:03;102794.91;;;-145.32;100.00
14041;BME280;7095;51.388;6.196;2023-03-08T00:11:32;102794.91;;;-145.32;100.00
14041;BME280;7095;51.388;6.196;2023-03-08T00:14:00;102794.91;;;-145.32;100.00
14041;BME280;7095;51.388;6.196;2023-03-08T00:16:29;102794.91;;;-145.32;100.00
14041;BME280;7095;51.388;6.196;2023-03-08T00:18:57;103053.06;;;-145.32;100.00
14041;BME280;7095;51.388;6.196;2023-03-08T00:21:26;103053.06;;;-145.32;100.00
14041;BME280;7095;51.388;6.196;2023-03-08T00:23:54;103053.06;;;-145.32;100.00
14041;BME280;7095;51.388;6.196;2023-03-08T00:26:24;103053.06;;;-145.32;100.00
14041;BME280;7095;51.388;6.196;2023-03-08T00:28:53;103053.06;;;-145.32;100.00
14041;BME280;7095;51.388;6.196;2023-03-08T00:31:22;103311.25;;;-145.32;100.00
14041;BME280;7095;51.388;6.196;2023-03-08T00:33:52;103311.25;;;-145.32;100.00
14041;BME280;7095;51.388;6.196;2023-03-08T00:36:21;103569.44;;;-145.32;100.00
14041;BME280;7095;51.388;6.196;2023-03-08T00:38:50;103569.44;;;-145.32;100.00
14041;BME280;7095;51.388;6.196;2023-03-08T00:41:18;103569.44;;;-145.32;100.00
14041;BME280;7095;51.388;6.196;2023-03-08T00:43:49;103569.44;;;-145.32;100.00
14041;BME280;7095;51.388;6.196;2023-03-08T00:46:17;103569.44;;;-145.32;100.00
14041;BME280;7095;51.388;6.196;2023-03-08T00:48:46;103569.44;;;-145.32;100.00
14041;BME280;7095;51.388;6.196;2023-03-08T00:51:15;103311.25;;;-145.32;100.00
14041;BME280;7095;51.388;6.196;2023-03-08T00:53:45;103311.25;;;-145.32;100.00
14041;BME280;7095;51.388;6.196;2023-03-08T00:56:14;103311.25;;;-145.32;100.00
14041;BME280;7095;51.388;6.196;2023-03-08T00:58:44;103311.25;;;-145.32;100.00
14041;BME280;7095;51.388;6.196;2023-03-08T01:01:16;103311.25;;;-145.32;100.00
14041;BME280;7095;51.388;6.196;2023-03-08T01:03:47;103311.25;;;-145.32;100.00
14041;BME280;7095;51.388;6.196;2023-03-08T01:06:16;103569.44;;;-145.32;100.00
14041;BME280;7095;51.388;6.196;2023-03-08T01:08:44;103569.44;;;-145.32;100.00
14041;BME280;7095;51.388;6.196;2023-03-08T01:11:15;103827.66;;;-145.32;100.00
14041;BME280;7095;51.388;6.196;2023-03-08T01:13:45;103827.66;;;-145.32;100.00
14041;BME280;7095;51.388;6.196;2023-03-08T01:16:17;103827.66;;;-145.32;100.00
14041;BME280;7095;51.388;6.196;2023-03-08T01:18:46;103827.66;;;-145.32;100.00
14041;BME280;7095;51.388;6.196;2023-03-08T01:21:15;103827.66;;;-145.32;100.00
14041;BME280;7095;51.388;6.196;2023-03-08T01:23:44;103827.66;;;-145.32;100.00
14041;BME280;7095;51.388;6.196;2023-03-08T01:26:14;103827.66;;;-145.32;100.00
14041;BME280;7095;51.388;6.196;2023-03-08T01:28:43;103827.66;;;-145.32;100.00
14041;BME280;7095;51.388;6.196;2023-03-08T01:31:13;104085.91;;;-145.32;100.00
14041;BME280;7095;51.388;6.196;2023-03-08T01:33:44;104085.91;;;-145.32;100.00
14041;BME280;7095;51.388;6.196;2023-03-08T01:36:15;104085.91;;;-145.32;100.00
14041;BME280;7095;51.388;6.196;2023-03-08T01:38:44;103827.66;;;-145.32;100.00
14041;BME280;7095;51.388;6.196;2023-03-08T01:41:15;104085.91;;;-145.32;100.00
14041;BME280;7095;51.388;6.196;2023-03-08T01:43:44;104344.16;;;-145.32;100.00
14041;BME280;7095;51.388;6.196;2023-03-08T01:46:27;104085.91;;;-145.32;100.00
14041;BME280;7095;51.388;6.196;2023-03-08T01:49:23;104344.16;;;-145.32;100.00
14041;BME280;7095;51.388;6.196;2023-03-08T01:51:57;104602.44;;;-145.32;100.00
14041;BME280;7095;51.388;6.196;2023-03-08T01:54:29;104602.44;;;-145.32;100.00
14041;BME280;7095;51.388;6.196;2023-03-08T01:57:00;104602.44;;;-145.32;100.00
14041;BME280;7095;51.388;6.196;2023-03-08T01:59:32;104602.44;;;-145.32;100.00
14041;BME280;7095;51.388;6.196;2023-03-08T02:02:01;104602.44;;;-145.32;100.00
14041;BME280;7095;51.388;6.196;2023-03-08T02:04:34;104602.44;;;-145.32;100.00
14041;BME280;7095;51.388;6.196;2023-03-08T02:07:07;104860.72;;;-145.32;100.00
14041;BME280;7095;51.388;6.196;2023-03-08T02:09:36;104602.44;;;-145.32;100.00
14041;BME280;7095;51.388;6.196;2023-03-08T02:12:08;104860.72;;;-145.32;100.00
14041;BME280;7095;51.388;6.196;2023-03-08T02:14:38;104860.72;;;-145.32;100.00
14041;BME280;7095;51.388;6.196;2023-03-08T02:17:09;104860.72;;;-145.32;100.00
14041;BME280;7095;51.388;6.196;2023-03-08T02:19:44;104860.72;;;-145.32;100.00
14041;BME280;7095;51.388;6.196;2023-03-08T02:22:15;104860.72;;;-145.32;100.00
14041;BME280;7095;51.388;6.196;2023-03-08T02:24:46;105119.03;;;-145.32;100.00
14041;BME280;7095;51.388;6.196;2023-03-08T02:27:18;105119.03;;;-145.32;100.00
14041;BME280;7095;51.388;6.196;2023-03-08T02:29:49;105119.03;;;-145.32;100.00
14041;BME280;7095;51.388;6.196;2023-03-08T02:32:17;105119.03;;;-145.32;100.00
14041;BME280;7095;51.388;6.196;2023-03-08T02:34:45;105377.34;;;-145.32;100.00
14041;BME280;7095;51.388;6.196;2023-03-08T02:37:14;105119.03;;;-145.32;100.00
14041;BME280;7095;51.388;6.196;2023-03-08T02:39:42;105119.03;;;-145.32;100.00
14041;BME280;7095;51.388;6.196;2023-03-08T02:42:12;105119.03;;;-145.32;100.00
14041;BME280;7095;51.388;6.196;2023-03-08T02:44:42;105119.03;;;-145.32;100.00
14041;BME280;7095;51.388;6.196;2023-03-08T02:47:10;104860.72;;;-145.32;100.00
14041;BME280;7095;51.388;6.196;2023-03-08T02:49:39;105119.03;;;-145.32;100.00
14041;BME280;7095;51.388;6.196;2023-03-08T02:52:09;105119.03;;;-145.32;100.00
14041;BME280;7095;51.388;6.196;2023-03-08T02:54:37;105119.03;;;-145.32;100.00
14041;BME280;7095;51.388;6.196;2023-03-08T02:57:06;104860.72;;;-145.32;100.00
14041;BME280;7095;51.388;6.196;2023-03-08T02:59:39;104602.44;;;-145.32;100.00
14041;BME280;7095;51.388;6.196;2023-03-08T03:02:07;104860.72;;;-145.32;100.00
14041;BME280;7095;51.388;6.196;2023-03-08T03:04:36;105119.03;;;-145.32;100.00
14041;BME280;7095;51.388;6.196;2023-03-08T03:07:04;105119.03;;;-145.32;100.00
14041;BME280;7095;51.388;6.196;2023-03-08T03:09:34;105377.34;;;-145.32;100.00
14041;BME280;7095;51.388;6.196;2023-03-08T03:12:03;105377.34;;;-145.32;100.00
14041;BME280;7095;51.388;6.196;2023-03-08T03:14:35;105635.72;;;-145.32;100.00
14041;BME280;7095;51.388;6.196;2023-03-08T03:17:05;105377.34;;;-145.32;100.00
14041;BME280;7095;51.388;6.196;2023-03-08T03:19:33;105377.34;;;-145.32;100.00
14041;BME280;7095;51.388;6.196;2023-03-08T03:22:02;105377.34;;;-145.32;100.00
14041;BME280;7095;51.388;6.196;2023-03-08T03:24:31;105377.34;;;-145.32;100.00
14041;BME280;7095;51.388;6.196;2023-03-08T03:27:03;105377.34;;;-145.32;100.00
14041;BME280;7095;51.388;6.196;2023-03-08T03:29:33;105377.34;;;-145.32;100.00
14041;BME280;7095;51.388;6.196;2023-03-08T03:32:13;105119.03;;;-145.32;100.00
14041;BME280;7095;51.388;6.196;2023-03-08T03:34:41;105377.34;;;-145.32;100.00
14041;BME280;7095;51.388;6.196;2023-03-08T03:37:11;105377.34;;;-145.32;100.00
14041;BME280;7095;51.388;6.196;2023-03-08T03:39:40;105635.72;;;-145.32;100.00
14041;BME280;7095;51.388;6.196;2023-03-08T03:42:11;105377.34;;;-145.32;100.00
14041;BME280;7095;51.388;6.196;2023-03-08T03:44:47;105119.03;;;-145.32;100.00
14041;BME280;7095;51.388;6.196;2023-03-08T03:47:20;105119.03;;;-145.32;100.00
14041;BME280;7095;51.388;6.196;2023-03-08T03:49:54;105377.34;;;-145.32;100.00
14041;BME280;7095;51.388;6.196;2023-03-08T03:52:24;105377.34;;;-145.32;100.00
14041;BME280;7095;51.388;6.196;2023-03-08T03:54:58;105377.34;;;-145.32;100.00
14041;BME280;7095;51.388;6.196;2023-03-08T03:57:27;105635.72;;;-145.32;100.00
14041;BME280;7095;51.388;6.196;2023-03-08T03:59:56;105377.34;;;-145.32;100.00
14041;BME280;7095;51.388;6.196;2023-03-08T04:02:26;105635.72;;;-145.32;100.00
14041;BME280;7095;51.388;6.196;2023-03-08T04:04:58;105635.72;;;-145.32;100.00
14041;BME280;7095;51.388;6.196;2023-03-08T04:07:29;105894.09;;;-145.32;100.00
14041;BME280;7095;51.388;6.196;2023-03-08T04:09:59;105894.09;;;-145.32;100.00
14041;BME280;7095;51.388;6.196;2023-03-08T04:12:29;105894.09;;;-145.32;100.00
14041;BME280;7095;51.388;6.196;2023-03-08T04:14:58;105894.09;;;-145.32;100.00
14041;BME280;7095;51.388;6.196;2023-03-08T04:17:31;105894.09;;;-145.32;100.00
14041;BME280;7095;51.388;6.196;2023-03-08T04:20:00;105894.09;;;-145.32;100.00
14041;BME280;7095;51.388;6.196;2023-03-08T04:22:34;106152.47;;;-145.32;100.00
14041;BME280;7095;51.388;6.196;2023-03-08T04:25:13;105894.09;;;-145.32;100.00
14041;BME280;7095;51.388;6.196;2023-03-08T04:27:51;105894.09;;;-145.32;100.00
14041;BME280;7095;51.388;6.196;2023-03-08T04:30:20;105635.72;;;-145.32;100.00
14041;BME280;7095;51.388;6.196;2023-03-08T04:32:52;105894.09;;;-145.32;100.00
14041;BME280;7095;51.388;6.196;2023-03-08T04:35:24;105894.09;;;-145.32;100.00
14041;BME280;7095;51.388;6.196;2023-03-08T04:37:53;105894.09;;;-145.32;100.00
14041;BME280;7095;51.388;6.196;2023-03-08T04:40:24;105894.09;;;-145.32;100.00
14041;BME280;7095;51.388;6.196;2023-03-08T04:42:57;105894.09;;;-145.32;100.00
14041;BME280;7095;51.388;6.196;2023-03-08T04:45:31;106152.47;;;-145.32;100.00
14041;BME280;7095;51.388;6.196;2023-03-08T04:48:05;105635.72;;;-145.32;100.00
14041;BME280;7095;51.388;6.196;2023-03-08T04:50:34;105894.09;;;-145.32;100.00
14041;BME280;7095;51.388;6.196;2023-03-08T04:53:03;105894.09;;;-145.32;100.00
14041;BME280;7095;51.388;6.196;2023-03-08T04:55:31;105894.09;;;-145.32;100.00
14041;BME280;7095;51.388;6.196;2023-03-08T04:58:00;105894.09;;;-145.32;100.00
14041;BME280;7095;51.388;6.196;2023-03-08T05:00:30;106152.47;;;-145.32;100.00
14041;BME280;7095;51.388;6.196;2023-03-08T05:02:59;105894.09;;;-145.32;100.00
14041;BME280;7095;51.388;6.196;2023-03-08T05:05:29;105894.09;;;-145.32;100.00
14041;BME280;7095;51.388;6.196;2023-03-08T05:07:58;106152.47;;;-145.32;100.00
14041;BME280;7095;51.388;6.196;2023-03-08T05:10:31;105894.09;;;-145.32;100.00
14041;BME280;7095;51.388;6.196;2023-03-08T05:13:00;105894.09;;;-145.32;100.00
14041;BME280;7095;51.388;6.196;2023-03-08T05:15:28;105894.09;;;-145.32;100.00
14041;BME280;7095;51.388;6.196;2023-03-08T05:17:57;105635.72;;;-145.32;100.00
14041;BME280;7095;51.388;6.196;2023-03-08T05:20:26;105635.72;;;-145.32;100.00
14041;BME280;7095;51.388;6.196;2023-03-08T05:22:56;105635.72;;;-145.32;100.00
14041;BME280;7095;51.388;6.196;2023-03-08T05:25:40;105635.72;;;-145.32;100.00
14041;BME280;7095;51.388;6.196;2023-03-08T05:28:09;105894.09;;;-145.32;100.00
14041;BME280;7095;51.388;6.196;2023-03-08T05:30:43;105894.09;;;-145.32;100.00
14041;BME280;7095;51.388;6.196;2023-03-08T05:33:12;105635.72;;;-145.32;100.00
14041;BME280;7095;51.388;6.196;2023-03-08T05:35:41;105635.72;;;-145.32;100.00
14041;BME280;7095;51.388;6.196;2023-03-08T05:38:11;105635.72;;;-145.32;100.00
14041;BME280;7095;51.388;6.196;2023-03-08T05:40:39;105635.72;;;-145.32;100.00
14041;BME280;7095;51.388;6.196;2023-03-08T05:43:09;105635.72;;;-145.32;100.00
14041;BME280;7095;51.388;6.196;2023-03-08T05:45:38;105635.72;;;-145.32;100.00
14041;BME280;7095;51.388;6.196;2023-03-08T05:48:07;105119.03;;;-145.32;100.00
14041;BME280;7095;51.388;6.196;2023-03-08T05:50:36;105119.03;;;-145.32;100.00
14041;BME280;7095;51.388;6.196;2023-03-08T05:53:05;105377.34;;;-145.32;100.00
14041;BME280;7095;51.388;6.196;2023-03-08T05:55:35;105119.03;;;-145.32;100.00
14041;BME280;7095;51.388;6.196;2023-03-08T05:58:04;105377.34;;;-145.32;100.00
14041;BME280;7095;51.388;6.196;2023-03-08T06:00:33;105377.34;;;-145.32;100.00
14041;BME280;7095;51.388;6.196;2023-03-08T06:03:01;105377.34;;;-145.32;100.00
14041;BME280;7095;51.388;6.196;2023-03-08T06:05:33;105119.03;;;-145.32;100.00
14041;BME280;7095;51.388;6.196;2023-03-08T06:08:02;105119.03;;;-145.32;100.00
14041;BME280;7095;51.388;6.196;2023-03-08T06:10:31;104860.72;;;-145.32;100.00
14041;BME280;7095;51.388;6.196;2023-03-08T06:13:01;104860.72;;;-145.32;100.00
14041;BME280;7095;51.388;6.196;2023-03-08T06:15:30;104602.44;;;-145.32;100.00
14041;BME280;7095;51.388;6.196;2023-03-08T06:17:59;104602.44;;;-145.32;100.00
14041;BME280;7095;51.388;6.196;2023-03-08T06:20:29;104602.44;;;-145.32;100.00
14041;BME280;7095;51.388;6.196;2023-03-08T06:22:59;104344.16;;;-145.32;100.00
14041;BME280;7095;51.388;6.196;2023-03-08T06:25:29;104344.16;;;-145.32;100.00
14041;BME280;7095;51.388;6.196;2023-03-08T06:28:00;104344.16;;;-145.32;100.00
14041;BME280;7095;51.388;6.196;2023-03-08T06:30:36;104602.44;;;-145.32;100.00
14041;BME280;7095;51.388;6.196;2023-03-08T06:33:05;104602.44;;;-145.32;100.00
14041;BME280;7095;51.388;6.196;2023-03-08T06:35:34;104602.44;;;-145.32;100.00
14041;BME280;7095;51.388;6.196;2023-03-08T06:38:05;104602.44;;;-145.32;100.00
14041;BME280;7095;51.388;6.196;2023-03-08T06:40:35;104602.44;;;-145.32;100.00
14041;BME280;7095;51.388;6.196;2023-03-08T06:43:05;104602.44;;;-145.32;100.00
14041;BME280;7095;51.388;6.196;2023-03-08T06:45:36;104602.44;;;-145.32;100.00
14041;BME280;7095;51.388;6.196;2023-03-08T06:48:06;104602.44;;;-145.32;100.00
14041;BME280;7095;51.388;6.196;2023-03-08T06:50:34;104602.44;;;-145.32;100.00
14041;BME280;7095;51.388;6.196;2023-03-08T06:53:03;104602.44;;;-145.32;100.00
14041;BME280;7095;51.388;6.196;2023-03-08T06:55:43;104602.44;;;-145.32;100.00
14041;BME280;7095;51.388;6.196;2023-03-08T06:58:14;104602.44;;;-145.32;100.00
14041;BME280;7095;51.388;6.196;2023-03-08T07:00:43;104602.44;;;-145.32;100.00
14041;BME280;7095;51.388;6.196;2023-03-08T07:03:12;104602.44;;;-145.32;100.00
14041;BME280;7095;51.388;6.196;2023-03-08T07:05:41;104602.44;;;-145.32;100.00
14041;BME280;7095;51.388;6.196;2023-03-08T07:08:09;104602.44;;;-145.32;100.00
14041;BME280;7095;51.388;6.196;2023-03-08T07:10:38;104602.44;;;-145.32;100.00
14041;BME280;7095;51.388;6.196;2023-03-08T07:13:06;104602.44;;;-145.32;100.00
14041;BME280;7095;51.388;6.196;2023-03-08T07:15:38;104602.44;;;-145.32;100.00
14041;BME280;7095;51.388;6.196;2023-03-08T07:18:06;104602.44;;;-145.32;100.00
14041;BME280;7095;51.388;6.196;2023-03-08T07:20:35;104602.44;;;-145.32;100.00
14041;BME280;7095;51.388;6.196;2023-03-08T07:23:03;104602.44;;;-145.32;100.00
14041;BME280;7095;51.388;6.196;2023-03-08T07:25:32;104602.44;;;-145.32;100.00
14041;BME280;7095;51.388;6.196;2023-03-08T07:28:00;104860.72;;;-145.32;100.00
14041;BME280;7095;51.388;6.196;2023-03-08T07:30:29;104860.72;;;-145.32;100.00
14041;BME280;7095;51.388;6.196;2023-03-08T07:32:59;104860.72;;;-145.32;100.00
14041;BME280;7095;51.388;6.196;2023-03-08T07:35:28;104860.72;;;-145.32;100.00
14041;BME280;7095;51.388;6.196;2023-03-08T07:37:56;104860.72;;;-145.32;100.00
14041;BME280;7095;51.388;6.196;2023-03-08T07:40:25;104860.72;;;-145.32;100.00
14041;BME280;7095;51.388;6.196;2023-03-08T07:42:54;105119.03;;;-145.32;100.00
14041;BME280;7095;51.388;6.196;2023-03-08T07:45:53;104860.72;;;-145.32;100.00
14041;BME280;7095;51.388;6.196;2023-03-08T07:48:22;104860.72;;;-145.32;100.00
14041;BME280;7095;51.388;6.196;2023-03-08T07:50:51;104860.72;;;-145.32;100.00
14041;BME280;7095;51.388;6.196;2023-03-08T07:53:20;104860.72;;;-145.32;100.00
14041;BME280;7095;51.388;6.196;2023-03-08T07:55:48;104860.72;;;-145.32;100.00
14041;BME280;7095;51.388;6.196;2023-03-08T07:58:17;104860.72;;;-145.32;100.00
14041;BME280;7095;51.388;6.196;2023-03-08T08:00:45;104860.72;;;-145.32;100.00
14041;BME280;7095;51.388;6.196;2023-03-08T08:03:14;104860.72;;;-145.32;100.00
14041;BME280;7095;51.388;6.196;2023-03-08T08:05:44;105119.03;;;-145.32;100.00
14041;BME280;7095;51.388;6.196;2023-03-08T08:08:12;105119.03;;;-145.32;100.00
14041;BME280;7095;51.388;6.196;2023-03-08T08:10:41;104860.72;;;-145.32;100.00
14041;BME280;7095;51.388;6.196;2023-03-08T08:13:10;104602.44;;;-145.32;100.00
14041;BME280;7095;51.388;6.196;2023-03-08T08:15:38;104860.72;;;-145.32;100.00
14041;BME280;7095;51.388;6.196;2023-03-08T08:18:07;104602.44;;;-145.32;100.00
14041;BME280;7095;51.388;6.196;2023-03-08T08:20:35;104860.72;;;-145.32;100.00
14041;BME280;7095;51.388;6.196;2023-03-08T08:23:05;104860.72;;;-145.32;100.00
14041;BME280;7095;51.388;6.196;2023-03-08T08:25:34;104860.72;;;-145.32;100.00
14041;BME280;7095;51.388;6.196;2023-03-08T08:28:02;104860.72;;;-145.32;100.00
14041;BME280;7095;51.388;6.196;2023-03-08T08:30:31;104860.72;;;-145.32;100.00
14041;BME280;7095;51.388;6.196;2023-03-08T08:32:59;104860.72;;;-145.32;100.00
14041;BME280;7095;51.388;6.196;2023-03-08T08:35:29;104860.72;;;-145.32;100.00
14041;BME280;7095;51.388;6.196;2023-03-08T08:38:10;104860.72;;;-145.32;100.00
14041;BME280;7095;51.388;6.196;2023-03-08T08:40:39;104860.72;;;-145.32;100.00
14041;BME280;7095;51.388;6.196;2023-03-08T08:43:08;104860.72;;;-145.32;100.00
14041;BME280;7095;51.388;6.196;2023-03-08T08:45:41;104860.72;;;-145.32;100.00
14041;BME280;7095;51.388;6.196;2023-03-08T08:48:11;104860.72;;;-145.32;100.00
14041;BME280;7095;51.388;6.196;2023-03-08T08:50:40;104860.72;;;-145.32;100.00
14041;BME280;7095;51.388;6.196;2023-03-08T08:53:10;104602.44;;;-145.32;100.00
14041;BME280;7095;51.388;6.196;2023-03-08T08:55:39;104860.72;;;-145.32;100.00
14041;BME280;7095;51.388;6.196;2023-03-08T08:58:10;104860.72;;;-145.32;100.00
14041;BME280;7095;51.388;6.196;2023-03-08T09:00:39;104860.72;;;-145.32;100.00
14041;BME280;7095;51.388;6.196;2023-03-08T09:03:08;104602.44;;;-145.32;100.00
14041;BME280;7095;51.388;6.196;2023-03-08T09:05:38;104602.44;;;-145.32;100.00
14041;BME280;7095;51.388;6.196;2023-03-08T09:08:08;104344.16;;;-145.32;100.00
14041;BME280;7095;51.388;6.196;2023-03-08T09:10:39;104085.91;;;-145.32;100.00
14041;BME280;7095;51.388;6.196;2023-03-08T09:13:07;103827.66;;;-145.32;100.00
14041;BME280;7095;51.388;6.196;2023-03-08T09:15:36;103827.66;;;-145.32;100.00
14041;BME280;7095;51.388;6.196;2023-03-08T09:18:05;103827.66;;;-145.32;100.00
14041;BME280;7095;51.388;6.196;2023-03-08T09:20:33;103827.66;;;-145.32;100.00
14041;BME280;7095;51.388;6.196;2023-03-08T09:23:02;103827.66;;;-145.32;100.00
14041;BME280;7095;51.388;6.196;2023-03-08T09:25:30;103827.66;;;-145.32;100.00
14041;BME280;7095;51.388;6.196;2023-03-08T09:28:00;103569.44;;;-145.32;100.00
14041;BME280;7095;51.388;6.196;2023-03-08T09:30:29;103827.66;;;-145.32;100.00
14041;BME280;7095;51.388;6.196;2023-03-08T09:32:58;103827.66;;;-145.32;100.00
14041;BME280;7095;51.388;6.196;2023-03-08T09:35:28;103569.44;;;-145.32;100.00
14041;BME280;7095;51.388;6.196;2023-03-08T09:37:57;103311.25;;;-145.32;100.00
14041;BME280;7095;51.388;6.196;2023-03-08T09:40:28;103311.25;;;-145.32;100.00
14041;BME280;7095;51.388;6.196;2023-03-08T09:43:09;103053.06;;;-145.32;100.00
14041;BME280;7095;51.388;6.196;2023-03-08T09:45:45;103053.06;;;-145.32;100.00
14041;BME280;7095;51.388;6.196;2023-03-08T09:48:17;102794.91;;;-145.32;100.00
14041;BME280;7095;51.388;6.196;2023-03-08T09:50:49;102536.75;;;-145.32;100.00
14041;BME280;7095;51.388;6.196;2023-03-08T09:53:26;102536.75;;;-145.32;100.00
14041;BME280;7095;51.388;6.196;2023-03-08T09:56:02;102536.75;;;-145.32;100.00
14041;BME280;7095;51.388;6.196;2023-03-08T09:58:36;102536.75;;;-145.32;100.00
14041;BME280;7095;51.388;6.196;2023-03-08T10:01:23;102278.66;;;-145.32;100.00
14041;BME280;7095;51.388;6.196;2023-03-08T10:04:12;102278.66;;;-145.32;100.00
14041;BME280;7095;51.388;6.196;2023-03-08T10:06:46;101762.47;;;-145.32;100.00
14041;BME280;7095;51.388;6.196;2023-03-08T10:09:26;101504.38;;;-145.32;100.00
14041;BME280;7095;51.388;6.196;2023-03-08T10:12:02;101246.34;;;-145.32;100.00
14041;BME280;7095;51.388;6.196;2023-03-08T10:14:43;100730.31;;;-145.32;100.00
14041;BME280;7095;51.388;6.196;2023-03-08T10:17:18;99956.41;;;-145.32;100.00
14041;BME280;7095;51.388;6.196;2023-03-08T10:19:52;99956.41;;;-145.32;100.00
14041;BME280;7095;51.388;6.196;2023-03-08T10:22:25;99440.56;;;-145.32;100.00
14041;BME280;7095;51.388;6.196;2023-03-08T10:24:59;98666.94;;;-145.32;100.00
14041;BME280;7095;51.388;6.196;2023-03-08T10:27:33;98924.81;;;-145.32;100.00
14041;BME280;7095;51.388;6.196;2023-03-08T10:30:12;98924.81;;;-145.32;100.00
14041;BME280;7095;51.388;6.196;2023-03-08T10:32:42;97893.50;;;-145.32;100.00
14041;BME280;7095;51.388;6.196;2023-03-08T10:35:11;97377.97;;;-145.32;100.00
14041;BME280;7095;51.388;6.196;2023-03-08T10:37:40;96604.81;;;-145.32;100.00
14041;BME280;7095;51.388;6.196;2023-03-08T10:40:14;95316.59;;;-145.32;100.00
14041;BME280;7095;51.388;6.196;2023-03-08T10:42:49;94801.44;;;-145.32;100.00
14041;BME280;7095;51.388;6.196;2023-03-08T10:45:21;94543.91;;;-145.32;100.00
14041;BME280;7095;51.388;6.196;2023-03-08T10:47:56;93771.38;;;-145.32;100.00
14041;BME280;7095;51.388;6.196;2023-03-08T10:50:27;92741.59;;;-145.32;100.00
14041;BME280;7095;51.388;6.196;2023-03-08T10:53:07;92484.19;;;-145.32;100.00
14041;BME280;7095;51.388;6.196;2023-03-08T10:55:41;91454.81;;;-145.32;100.00
14041;BME280;7095;51.388;6.196;2023-03-08T10:58:27;90940.22;;;-145.32;100.00
14041;BME280;7095;51.388;6.196;2023-03-08T11:00:59;90425.72;;;-145.32;100.00
14041;BME280;7095;51.388;6.196;2023-03-08T11:03:28;90425.72;;;-145.32;100.00
14041;BME280;7095;51.388;6.196;2023-03-08T11:05:59;90168.50;;;-145.32;100.00
14041;BME280;7095;51.388;6.196;2023-03-08T11:08:30;90168.50;;;-145.32;100.00
14041;BME280;7095;51.388;6.196;2023-03-08T11:11:01;90168.50;;;-145.32;100.00
14041;BME280;7095;51.388;6.196;2023-03-08T11:13:31;89911.31;;;-145.32;100.00
14041;BME280;7095;51.388;6.196;2023-03-08T11:19:15;89911.31;;;-145.32;100.00
14041;BME280;7095;51.388;6.196;2023-03-08T11:21:55;89654.13;;;-145.32;100.00
14041;BME280;7095;51.388;6.196;2023-03-08T11:24:40;89396.97;;;-145.32;100.00
14041;BME280;7095;51.388;6.196;2023-03-08T11:27:21;90168.50;;;-145.32;100.00
14041;BME280;7095;51.388;6.196;2023-03-08T11:30:04;90940.22;;;-145.32;100.00
14041;BME280;7095;51.388;6.196;2023-03-08T11:32:50;90940.22;;;-145.32;100.00
14041;BME280;7095;51.388;6.196;2023-03-08T11:35:28;90682.97;;;-145.32;100.00
14041;BME280;7095;51.388;6.196;2023-03-08T11:38:04;90682.97;;;-145.32;100.00
14041;BME280;7095;51.388;6.196;2023-03-08T11:40:46;90682.97;;;-145.32;100.00
14041;BME280;7095;51.388;6.196;2023-03-08T11:43:27;91197.50;;;-145.32;100.00
14041;BME280;7095;51.388;6.196;2023-03-08T11:46:02;91454.81;;;-145.32;100.00
14041;BME280;7095;51.388;6.196;2023-03-08T11:48:42;91712.13;;;-145.32;100.00
14041;BME280;7095;51.388;6.196;2023-03-08T11:51:22;91197.50;;;-145.32;100.00
14041;BME280;7095;51.388;6.196;2023-03-08T11:54:03;91712.13;;;-145.32;100.00
14041;BME280;7095;51.388;6.196;2023-03-08T11:56:39;91454.81;;;-145.32;100.00
14041;BME280;7095;51.388;6.196;2023-03-08T11:59:16;91712.13;;;-145.32;100.00
14041;BME280;7095;51.388;6.196;2023-03-08T12:01:48;91712.13;;;-145.32;100.00
14041;BME280;7095;51.388;6.196;2023-03-08T12:04:25;91454.81;;;-145.32;100.00
14041;BME280;7095;51.388;6.196;2023-03-08T12:06:59;91712.13;;;-145.32;100.00
14041;BME280;7095;51.388;6.196;2023-03-08T12:09:33;91969.47;;;-145.32;100.00
14041;BME280;7095;51.388;6.196;2023-03-08T12:12:06;92226.81;;;-145.32;100.00
14041;BME280;7095;51.388;6.196;2023-03-08T12:14:43;92226.81;;;-145.32;100.00
14041;BME280;7095;51.388;6.196;2023-03-08T12:17:17;91969.47;;;-145.32;100.00
14041;BME280;7095;51.388;6.196;2023-03-08T12:19:48;92484.19;;;-145.32;100.00
14041;BME280;7095;51.388;6.196;2023-03-08T12:22:27;91969.47;;;-145.32;100.00
14041;BME280;7095;51.388;6.196;2023-03-08T12:25:08;92226.81;;;-145.32;100.00
14041;BME280;7095;51.388;6.196;2023-03-08T12:27:46;92484.19;;;-145.32;100.00
14041;BME280;7095;51.388;6.196;2023-03-08T12:30:22;92484.19;;;-145.32;100.00
14041;BME280;7095;51.388;6.196;2023-03-08T12:32:53;92226.81;;;-145.32;100.00
14041;BME280;7095;51.388;6.196;2023-03-08T12:35:27;92741.59;;;-145.32;100.00
14041;BME280;7095;51.388;6.196;2023-03-08T12:37:59;91969.47;;;-145.32;100.00
14041;BME280;7095;51.388;6.196;2023-03-08T12:40:35;91197.50;;;-145.32;100.00
14041;BME280;7095;51.388;6.196;2023-03-08T12:43:10;91197.50;;;-145.32;100.00
14041;BME280;7095;51.388;6.196;2023-03-08T12:45:41;90682.97;;;-145.32;100.00
14041;BME280;7095;51.388;6.196;2023-03-08T12:48:29;89139.81;;;-145.32;100.00
14041;BME280;7095;51.388;6.196;2023-03-08T12:51:02;89139.81;;;-145.32;100.00
14041;BME280;7095;51.388;6.196;2023-03-08T12:53:36;88111.41;;;-145.32;100.00
14041;BME280;7095;51.388;6.196;2023-03-08T12:56:19;88111.41;;;-145.32;100.00
14041;BME280;7095;51.388;6.196;2023-03-08T12:58:51;88368.50;;;-145.32;100.00